McAlester, OK

12:28 AM CDT on March 27, 2015 (GMT -0500)
McAlester Regional | | Change Station
CLOSE
Current Station
Airport
Location: McAlester,
Elevation: 768 ft
Nearby Weather Stations

Elev 768 ft 34.88 °N, 95.78 °W | Updated 35 minutes ago

Mostly Cloudy
Mostly Cloudy
42 °F
Feels Like 42 °F
N
0
Wind Variable Wind from North

Today
High -- | Low -- °F
--% Chance of Precip.
Yesterday
High -- | Low -- °F
Precip. -- in
7:17 AM 7:40 PM
Waxing Crescent, 49% visible
Pressure 30.09 in
Visibility 10.0 miles
Clouds Scattered Clouds 8000 ft
Mostly Cloudy 10000 ft
Dew Point 34 °F
Humidity 73%
Rainfall 0.28 in
Snow Depth Not available.
UV 0 out of 12
Pollen 7.60 out of 12
Air Quality Not available.
Flu Activity Not available.
METAR KMLC 270453Z AUTO 00000KT 10SM SCT080 BKN100 06/01 A3009 RMK AO2 SLP188 T00560011

More Conditions Fewer Conditions

Pressure 30.09 in
Visibility 10.0 miles
Clouds Scattered Clouds 8000 ft
Mostly Cloudy 10000 ft
Dew Point 34 °F
Humidity 73%
Rainfall 0.28 in
Snow Depth Not available.
UV 0 out of 12
Pollen 7.60 out of 12
Air Quality Not available.
Flu Activity Not available.
METAR KMLC 270453Z AUTO 00000KT 10SM SCT080 BKN100 06/01 A3009 RMK AO2 SLP188 T00560011

More Conditions Fewer Conditions

10-Day Weather Forecast

Almanac

Astronomy

Mar. 27, 2015 Rise Set
Actual Time
Civil Twilight
Nautical Twilight
Astronomical Twilight
Moon
Length of Visible Light
Length of Day
Tomorrow will be .
, % of the Moon is Illuminated

Today's Extremes

State Highs State Lows

Community

WunderPhotos

Upload Photos

1,808,698 photos uploaded!

WunderBlogs® & News

Nearby

Air Quality

  Air Quality AQ Index Pollutant
Not available.

Snow Depth

Station Depth Elevation

Earthquake Activity

City Distance Mag. Time & Date
Minimum magnitude displayed is 2.5.

Coastal Water Temperatures

Place Temperature

Stations

Nearby Weather Stations

Station Location Temp. Windchill Dew Point Humidity Wind Precip. Elev Updated Type